createdAt,value
2022-11-17T00:00:01.421Z,1003.79
2022-11-17T00:05:15.621Z,1003.77
2022-11-17T00:10:01.152Z,1003.77
2022-11-17T00:30:00.782Z,1003.51
2022-11-17T00:35:00.666Z,1003.45
2022-11-17T00:45:00.681Z,1003.36
2022-11-17T01:00:05.825Z,1003.19
2022-11-17T01:15:00.630Z,1002.89
2022-11-17T01:30:01.006Z,1002.92
2022-11-17T01:45:01.650Z,1002.73
2022-11-17T02:00:01.239Z,1002.50
2022-11-17T02:15:00.762Z,1002.16
2022-11-17T02:25:00.897Z,1002.07
2022-11-17T02:30:00.655Z,1002.07
2022-11-17T02:45:00.923Z,1002.01
2022-11-17T03:00:01.625Z,1001.90
2022-11-17T03:15:01.316Z,1001.82
2022-11-17T03:30:00.667Z,1001.88
2022-11-17T03:35:01.207Z,1001.71
2022-11-17T03:45:00.783Z,1001.74
2022-11-17T03:55:01.104Z,1001.69
2022-11-17T04:00:00.669Z,1001.69
2022-11-17T04:15:01.355Z,1001.44
2022-11-17T04:25:00.747Z,1001.62
2022-11-17T04:30:03.951Z,1001.62
2022-11-17T04:35:00.648Z,1001.37
2022-11-17T04:45:00.711Z,1001.41
2022-11-17T04:50:00.840Z,1001.41
2022-11-17T04:55:05.732Z,1001.42
2022-11-17T05:00:01.289Z,1001.42
2022-11-17T05:05:00.731Z,1001.30
2022-11-17T05:15:01.935Z,1001.16
2022-11-17T05:20:02.752Z,1001.16
2022-11-17T05:30:00.731Z,1001.18
2022-11-17T05:45:01.830Z,1001.15
2022-11-17T06:00:00.495Z,1001.16
2022-11-17T06:30:01.125Z,1000.81
2022-11-17T06:45:00.820Z,1000.75
2022-11-17T07:00:03.310Z,1000.67
2022-11-17T07:15:00.692Z,1000.70
2022-11-17T07:20:00.875Z,1000.70
2022-11-17T07:25:00.623Z,1000.80
2022-11-17T07:30:00.622Z,1000.80
2022-11-17T07:45:00.869Z,1000.63
2022-11-17T08:00:00.615Z,1000.56
2022-11-17T08:15:01.077Z,1000.54
2022-11-17T08:25:00.624Z,1000.58
2022-11-17T08:30:01.816Z,1000.58
2022-11-17T08:45:00.885Z,1000.64
2022-11-17T08:50:00.649Z,1000.64
2022-11-17T09:00:00.707Z,1000.59
2022-11-17T09:05:00.862Z,1000.45
2022-11-17T09:15:00.640Z,1000.63
2022-11-17T09:30:00.833Z,1000.59
2022-11-17T09:45:00.791Z,1000.43
2022-11-17T10:00:00.749Z,1000.36
2022-11-17T10:10:00.733Z,1000.22
2022-11-17T10:15:00.905Z,1000.13
2022-11-17T10:25:00.982Z,1000.10
2022-11-17T10:30:00.732Z,1000.10
2022-11-17T10:45:00.820Z,1000.02
2022-11-17T11:00:00.737Z,999.89
2022-11-17T11:05:00.970Z,999.85
2022-11-17T11:15:00.752Z,999.85
2022-11-17T11:30:01.032Z,999.71
2022-11-17T11:45:00.679Z,999.67
2022-11-17T12:00:05.129Z,999.68
2022-11-17T12:15:00.748Z,999.76
2022-11-17T12:30:00.788Z,999.51
2022-11-17T12:45:01.817Z,999.51
2022-11-17T12:55:00.799Z,999.40
2022-11-17T13:00:00.703Z,999.46
2022-11-17T13:15:00.987Z,999.56
2022-11-17T13:30:00.775Z,999.61
2022-11-17T13:35:00.819Z,999.61
2022-11-17T13:45:00.785Z,999.41
2022-11-17T14:00:00.823Z,999.51
2022-11-17T14:15:00.776Z,999.57
2022-11-17T14:30:00.868Z,999.55
2022-11-17T14:45:00.786Z,999.62
2022-11-17T15:00:00.860Z,999.70
2022-11-17T15:15:00.740Z,999.68
2022-11-17T15:30:00.843Z,999.86
2022-11-17T15:45:00.755Z,999.81
2022-11-17T16:00:00.962Z,1000.02
2022-11-17T16:15:00.754Z,999.89
2022-11-17T16:30:01.056Z,1000.00
2022-11-17T16:35:01.044Z,1000.00
2022-11-17T16:45:01.091Z,999.93
2022-11-17T17:00:03.456Z,1000.06
2022-11-17T17:15:01.664Z,1000.05
2022-11-17T17:30:01.217Z,1000.06
2022-11-17T17:45:01.160Z,1000.20
2022-11-17T17:55:01.301Z,1000.29
2022-11-17T18:00:03.057Z,1000.26
2022-11-17T18:15:01.196Z,1000.43
2022-11-17T18:30:01.208Z,1000.56
2022-11-17T18:45:01.518Z,1000.51
2022-11-17T19:00:03.506Z,1000.72
2022-11-17T19:15:01.119Z,1000.79
2022-11-17T19:30:01.174Z,1000.98
2022-11-17T19:35:17.119Z,1000.98
2022-11-17T19:45:01.161Z,1001.10
2022-11-17T19:50:01.117Z,1001.07
2022-11-17T20:00:02.970Z,1001.14
2022-11-17T20:15:01.238Z,1001.14
2022-11-17T20:30:12.240Z,1001.40
2022-11-17T20:45:01.258Z,1001.42
2022-11-17T21:00:02.952Z,1001.55
2022-11-17T21:15:01.133Z,1001.67
2022-11-17T21:30:01.368Z,1001.95
2022-11-17T21:45:01.275Z,1002.01
2022-11-17T22:00:02.652Z,1001.95
2022-11-17T22:15:01.302Z,1002.07
2022-11-17T22:30:01.111Z,1002.26
2022-11-17T22:45:01.351Z,1002.25
2022-11-17T22:50:01.390Z,1002.32
2022-11-17T23:00:03.248Z,1002.52
2022-11-17T23:05:02.526Z,1002.52
2022-11-17T23:15:01.807Z,1002.36
2022-11-17T23:25:01.760Z,1002.69
2022-11-17T23:30:02.614Z,1002.66
2022-11-17T23:45:01.839Z,1002.60
